createdAt,value
2023-02-21T00:00:52.977Z,10.70
2023-02-21T00:01:52.983Z,12.80
2023-02-21T00:02:52.977Z,12.80
2023-02-21T00:03:52.948Z,10.70
2023-02-21T00:04:52.922Z,12.90
2023-02-21T00:05:52.997Z,14.90
2023-02-21T00:06:52.901Z,11.90
2023-02-21T00:07:52.897Z,13.50
2023-02-21T00:08:52.899Z,11.10
2023-02-21T00:09:52.876Z,14.90
2023-02-21T00:10:52.861Z,13.80
2023-02-21T00:11:52.849Z,11.20
2023-02-21T00:12:52.824Z,14.80
2023-02-21T00:13:52.855Z,13.70
2023-02-21T00:14:52.801Z,14.00
2023-02-21T00:15:52.797Z,11.10
2023-02-21T00:16:52.830Z,14.00
2023-02-21T00:17:52.761Z,12.40
2023-02-21T00:18:52.767Z,10.10
2023-02-21T00:19:52.739Z,11.60
2023-02-21T00:20:52.727Z,9.20
2023-02-21T00:21:52.712Z,10.80
2023-02-21T00:22:52.702Z,12.10
2023-02-21T00:23:52.703Z,13.00
2023-02-21T00:24:52.699Z,10.30
2023-02-21T00:25:52.660Z,12.40
2023-02-21T00:26:52.648Z,12.60
2023-02-21T00:27:52.645Z,13.00
2023-02-21T00:28:52.631Z,11.10
2023-02-21T00:29:52.632Z,11.30
2023-02-21T00:30:52.779Z,11.70
2023-02-21T00:31:52.589Z,12.70
2023-02-21T00:32:52.704Z,10.30
2023-02-21T00:33:52.572Z,11.20
2023-02-21T00:34:52.553Z,10.50
2023-02-21T00:35:52.530Z,10.20
2023-02-21T00:36:52.522Z,12.10
2023-02-21T00:37:52.505Z,9.80
2023-02-21T00:38:52.502Z,9.70
2023-02-21T00:39:52.482Z,9.20
2023-02-21T00:40:52.465Z,10.10
2023-02-21T00:41:52.451Z,12.00
2023-02-21T00:42:52.436Z,10.50
2023-02-21T00:43:52.439Z,10.50
2023-02-21T00:44:52.418Z,14.70
2023-02-21T00:45:52.513Z,11.70
2023-02-21T00:46:52.383Z,11.50
2023-02-21T00:47:52.372Z,11.30
2023-02-21T00:48:52.381Z,11.30
2023-02-21T00:49:52.350Z,12.60
2023-02-21T00:50:52.333Z,11.30
2023-02-21T00:51:52.320Z,9.10
2023-02-21T00:52:52.306Z,9.80
2023-02-21T00:53:52.326Z,9.70
2023-02-21T00:54:52.286Z,11.50
2023-02-21T00:55:52.286Z,13.10
2023-02-21T00:56:52.254Z,9.60
2023-02-21T00:57:52.249Z,11.50
2023-02-21T00:58:52.235Z,9.80
2023-02-21T00:59:52.212Z,11.80
2023-02-21T01:00:52.200Z,13.00
2023-02-21T01:01:52.209Z,10.50
2023-02-21T01:02:52.173Z,12.50
2023-02-21T01:03:52.183Z,11.90
2023-02-21T01:04:52.143Z,10.30
2023-02-21T01:05:52.139Z,11.80
2023-02-21T01:06:52.125Z,12.80
2023-02-21T01:07:52.110Z,13.60
2023-02-21T01:08:52.130Z,10.70
2023-02-21T01:09:52.084Z,10.10
2023-02-21T01:10:52.074Z,11.70
2023-02-21T01:11:52.084Z,13.80
2023-02-21T01:12:52.061Z,9.60
2023-02-21T01:13:52.070Z,12.60
2023-02-21T01:14:52.046Z,10.20
2023-02-21T01:15:52.084Z,11.80
2023-02-21T01:16:53.062Z,12.20
2023-02-21T01:17:52.010Z,11.70
2023-02-21T01:18:51.986Z,11.20
2023-02-21T01:19:51.982Z,11.40
2023-02-21T01:20:51.964Z,11.40
2023-02-21T01:21:51.954Z,11.60
2023-02-21T01:22:51.920Z,12.70
2023-02-21T01:23:51.907Z,11.40
2023-02-21T01:24:51.908Z,10.90
2023-02-21T01:25:51.879Z,10.60
2023-02-21T01:26:51.865Z,10.20
2023-02-21T01:27:51.852Z,12.90
2023-02-21T01:28:51.845Z,10.80
2023-02-21T01:29:51.850Z,10.40
2023-02-21T01:30:51.868Z,11.60
2023-02-21T01:31:51.800Z,9.90
2023-02-21T01:32:51.790Z,10.50
2023-02-21T01:33:51.798Z,11.20
2023-02-21T01:34:51.771Z,12.00
2023-02-21T01:35:51.746Z,12.60
2023-02-21T01:36:51.738Z,11.00
2023-02-21T01:37:51.726Z,15.20
2023-02-21T01:38:51.702Z,10.90
2023-02-21T01:39:51.713Z,10.50
2023-02-21T01:40:51.685Z,9.40
2023-02-21T01:41:51.670Z,13.60
2023-02-21T01:42:51.652Z,13.60
2023-02-21T01:43:51.638Z,11.60
2023-02-21T01:44:51.649Z,10.70
2023-02-21T01:45:51.667Z,10.60
2023-02-21T01:46:51.600Z,10.70
2023-02-21T01:47:51.586Z,10.20
2023-02-21T01:48:53.668Z,11.70
2023-02-21T01:49:51.609Z,10.20
2023-02-21T01:50:51.555Z,11.40
2023-02-21T01:51:51.529Z,11.90
2023-02-21T01:52:51.538Z,10.30
2023-02-21T01:53:51.506Z,9.20
2023-02-21T01:54:51.506Z,12.20
2023-02-21T01:55:51.483Z,12.60
2023-02-21T01:56:51.462Z,10.90
2023-02-21T01:57:51.446Z,11.00
2023-02-21T01:58:51.432Z,10.80
2023-02-21T01:59:51.441Z,10.90
2023-02-21T02:00:51.416Z,9.40
2023-02-21T02:01:51.466Z,8.20
2023-02-21T02:02:51.381Z,9.70
2023-02-21T02:03:51.362Z,9.80
2023-02-21T02:04:51.441Z,12.10
2023-02-21T02:05:51.355Z,10.80
2023-02-21T02:06:51.329Z,9.40
2023-02-21T02:07:51.308Z,11.40
2023-02-21T02:08:51.308Z,9.70
2023-02-21T02:09:51.300Z,10.50
2023-02-21T02:10:51.272Z,12.20
2023-02-21T02:11:51.260Z,11.50
2023-02-21T02:12:51.244Z,11.00
2023-02-21T02:13:51.235Z,10.00
2023-02-21T02:14:51.232Z,9.80
2023-02-21T02:15:51.237Z,11.30
2023-02-21T02:16:51.193Z,11.10
2023-02-21T02:17:51.178Z,10.10
2023-02-21T02:18:51.167Z,11.20
2023-02-21T02:19:51.167Z,12.90
2023-02-21T02:20:51.137Z,12.30
2023-02-21T02:21:51.146Z,11.50
2023-02-21T02:22:51.115Z,11.50
2023-02-21T02:23:51.111Z,11.00
2023-02-21T02:24:51.105Z,13.10
2023-02-21T02:25:51.074Z,10.50
2023-02-21T02:26:51.061Z,12.70
2023-02-21T02:27:51.069Z,12.90
2023-02-21T02:28:51.037Z,12.80
2023-02-21T02:29:51.038Z,12.00
2023-02-21T02:30:51.026Z,11.10
2023-02-21T02:31:51.180Z,12.80
2023-02-21T02:32:50.980Z,11.60
2023-02-21T02:33:50.966Z,12.20
2023-02-21T02:34:50.970Z,12.20
2023-02-21T02:35:50.940Z,11.70
2023-02-21T02:36:50.928Z,13.70
2023-02-21T02:37:50.933Z,13.30
2023-02-21T02:38:50.900Z,13.30
2023-02-21T02:39:50.905Z,14.60
2023-02-21T02:40:50.874Z,12.50
2023-02-21T02:41:50.859Z,12.50
2023-02-21T02:42:50.851Z,12.10
2023-02-21T02:43:50.851Z,13.20
2023-02-21T02:44:50.824Z,12.50
2023-02-21T02:45:50.819Z,11.90
2023-02-21T02:46:50.799Z,12.50
2023-02-21T02:47:50.786Z,11.00
2023-02-21T02:48:50.771Z,12.00
2023-02-21T02:49:50.756Z,12.60
2023-02-21T02:50:50.756Z,11.90
2023-02-21T02:51:50.737Z,13.20
2023-02-21T02:52:50.719Z,14.20
2023-02-21T02:53:50.717Z,11.50
2023-02-21T02:54:50.693Z,12.00
2023-02-21T02:55:50.695Z,12.50
2023-02-21T02:56:50.661Z,12.60
2023-02-21T02:57:50.648Z,13.40
2023-02-21T02:58:50.639Z,13.10
2023-02-21T02:59:50.620Z,13.30
2023-02-21T03:00:50.625Z,11.50
2023-02-21T03:01:50.641Z,12.10
2023-02-21T03:02:50.583Z,10.70
2023-02-21T03:03:50.590Z,13.10
2023-02-21T03:04:50.555Z,11.50
2023-02-21T03:05:50.558Z,12.00
2023-02-21T03:06:50.526Z,12.30
2023-02-21T03:07:50.509Z,14.70
2023-02-21T03:08:50.503Z,13.10
2023-02-21T03:09:50.512Z,13.10
2023-02-21T03:10:50.489Z,14.70
2023-02-21T03:11:50.455Z,10.10
2023-02-21T03:12:50.450Z,12.90
2023-02-21T03:13:50.440Z,11.10
2023-02-21T03:14:50.419Z,12.60
2023-02-21T03:15:50.430Z,11.50
2023-02-21T03:16:50.394Z,11.00
2023-02-21T03:17:50.381Z,10.70
2023-02-21T03:18:50.361Z,13.40
2023-02-21T03:19:50.353Z,11.30
2023-02-21T03:20:50.360Z,13.50
2023-02-21T03:21:50.322Z,11.60
2023-02-21T03:22:50.312Z,13.10
2023-02-21T03:23:50.303Z,11.20
2023-02-21T03:24:50.302Z,13.70
2023-02-21T03:25:50.316Z,14.90
2023-02-21T03:26:50.263Z,13.40
2023-02-21T03:27:50.250Z,11.60
2023-02-21T03:28:50.250Z,12.60
2023-02-21T03:29:50.221Z,12.80
2023-02-21T03:30:50.220Z,12.30
2023-02-21T03:31:50.263Z,13.90
2023-02-21T03:32:50.185Z,12.20
2023-02-21T03:33:50.169Z,12.80
2023-02-21T03:34:50.151Z,12.80
2023-02-21T03:35:50.153Z,14.50
2023-02-21T03:36:50.139Z,12.30
2023-02-21T03:37:50.106Z,14.20
2023-02-21T03:38:50.098Z,11.60
2023-02-21T03:39:50.093Z,13.50
2023-02-21T03:40:50.072Z,10.80
2023-02-21T03:41:50.091Z,13.00
2023-02-21T03:42:50.048Z,14.10
2023-02-21T03:43:50.062Z,12.70
2023-02-21T03:44:50.034Z,14.80
2023-02-21T03:45:50.011Z,13.20
2023-02-21T03:46:50.054Z,11.20
2023-02-21T03:47:49.981Z,11.30
2023-02-21T03:48:49.961Z,11.70
2023-02-21T03:49:49.948Z,13.20
2023-02-21T03:50:49.936Z,12.40
2023-02-21T03:51:49.940Z,11.40
2023-02-21T03:52:49.914Z,11.10
2023-02-21T03:53:49.898Z,12.40
2023-02-21T03:54:49.889Z,11.80
2023-02-21T03:55:49.876Z,11.60
2023-02-21T03:56:49.873Z,12.60
2023-02-21T03:57:49.868Z,11.30
2023-02-21T03:58:49.845Z,11.40
2023-02-21T03:59:49.820Z,11.00
2023-02-21T04:00:49.812Z,10.50
2023-02-21T04:01:49.857Z,11.50
2023-02-21T04:02:49.784Z,12.40
2023-02-21T04:03:49.769Z,9.60
2023-02-21T04:04:49.766Z,9.50
2023-02-21T04:05:49.748Z,9.80
2023-02-21T04:06:49.750Z,10.00
2023-02-21T04:07:49.718Z,8.80
2023-02-21T04:08:52.161Z,11.80
2023-02-21T04:09:49.687Z,10.60
2023-02-21T04:10:52.540Z,10.60
2023-02-21T04:11:49.684Z,9.30
2023-02-21T04:12:49.654Z,9.20
2023-02-21T04:13:49.661Z,13.00
2023-02-21T04:14:49.634Z,14.60
2023-02-21T04:15:49.611Z,14.30
2023-02-21T04:16:49.612Z,15.90
2023-02-21T04:17:49.587Z,14.70
2023-02-21T04:18:49.570Z,14.00
2023-02-21T04:19:49.563Z,13.50
2023-02-21T04:20:49.568Z,12.80
2023-02-21T04:21:49.548Z,13.50
2023-02-21T04:23:02.859Z,13.50
2023-02-21T04:23:50.504Z,13.30
2023-02-21T04:24:49.492Z,14.90
2023-02-21T04:25:49.491Z,14.80
2023-02-21T04:26:49.486Z,14.40
2023-02-21T04:27:49.716Z,11.40
2023-02-21T04:28:49.439Z,10.90
2023-02-21T04:29:49.454Z,13.30
2023-02-21T04:30:49.418Z,10.20
2023-02-21T04:31:49.557Z,10.50
2023-02-21T04:32:49.396Z,9.10
2023-02-21T04:33:51.620Z,12.70
2023-02-21T04:34:50.360Z,10.80
2023-02-21T04:35:49.347Z,13.10
2023-02-21T04:36:49.350Z,12.50
2023-02-21T04:37:49.321Z,10.90
2023-02-21T04:38:49.307Z,10.40
2023-02-21T04:39:49.296Z,10.70
2023-02-21T04:40:49.283Z,15.30
2023-02-21T04:41:49.351Z,13.00
2023-02-21T04:42:49.255Z,12.10
2023-02-21T04:43:49.244Z,11.00
2023-02-21T04:44:59.726Z,12.50
2023-02-21T04:45:50.286Z,13.90
2023-02-21T04:46:49.216Z,14.10
2023-02-21T04:47:49.202Z,11.20
2023-02-21T04:48:49.174Z,12.20
2023-02-21T04:49:49.167Z,10.30
2023-02-21T04:50:49.147Z,11.30
2023-02-21T04:51:49.134Z,11.00
2023-02-21T04:52:49.131Z,11.60
2023-02-21T04:53:49.113Z,13.30
2023-02-21T04:54:49.092Z,10.70
2023-02-21T04:55:49.086Z,12.10
2023-02-21T04:56:49.127Z,11.70
2023-02-21T04:57:49.073Z,12.60
2023-02-21T04:58:49.045Z,11.30
2023-02-21T04:59:49.051Z,10.90
2023-02-21T05:00:49.050Z,11.00
2023-02-21T05:01:49.023Z,11.80
2023-02-21T05:02:49.008Z,12.10
2023-02-21T05:03:48.980Z,14.20
2023-02-21T05:04:48.982Z,12.30
2023-02-21T05:05:48.955Z,11.10
2023-02-21T05:06:48.937Z,11.90
2023-02-21T05:07:48.947Z,10.00
2023-02-21T05:08:48.908Z,11.70
2023-02-21T05:09:48.896Z,12.40
2023-02-21T05:10:48.881Z,12.50
2023-02-21T05:11:48.867Z,12.80
2023-02-21T05:12:48.867Z,10.30
2023-02-21T05:13:48.846Z,13.80
2023-02-21T05:14:48.831Z,11.10
2023-02-21T05:15:48.817Z,11.00
2023-02-21T05:16:48.840Z,13.30
2023-02-21T05:17:48.826Z,11.40
2023-02-21T05:18:48.774Z,11.40
2023-02-21T05:19:48.775Z,11.90
2023-02-21T05:20:48.749Z,11.30
2023-02-21T05:21:48.739Z,12.30
2023-02-21T05:22:48.735Z,12.80
2023-02-21T05:23:48.714Z,10.80
2023-02-21T05:24:48.696Z,10.60
2023-02-21T05:25:48.679Z,13.00
2023-02-21T05:26:48.686Z,10.10
2023-02-21T05:27:48.673Z,11.40
2023-02-21T05:28:48.639Z,10.70
2023-02-21T05:29:48.633Z,9.60
2023-02-21T05:30:48.751Z,12.10
2023-02-21T05:31:48.661Z,11.30
2023-02-21T05:32:48.605Z,13.00
2023-02-21T05:33:48.596Z,10.60
2023-02-21T05:34:48.591Z,13.70
2023-02-21T05:35:48.563Z,10.70
2023-02-21T05:36:48.537Z,11.50
2023-02-21T05:37:48.682Z,11.70
2023-02-21T05:38:48.516Z,12.00
2023-02-21T05:39:48.544Z,12.40
2023-02-21T05:40:48.488Z,12.30
2023-02-21T05:41:48.474Z,13.30
2023-02-21T05:42:48.478Z,12.80
2023-02-21T05:43:48.451Z,12.80
2023-02-21T05:44:48.434Z,11.70
2023-02-21T05:45:48.495Z,12.50
2023-02-21T05:46:48.432Z,15.00
2023-02-21T05:47:48.426Z,13.30
2023-02-21T05:48:48.382Z,13.50
2023-02-21T05:49:48.438Z,14.60
2023-02-21T05:50:48.361Z,14.20
2023-02-21T05:51:48.342Z,12.90
2023-02-21T05:52:48.326Z,15.60
2023-02-21T05:53:48.334Z,14.90
2023-02-21T05:54:48.304Z,13.80
2023-02-21T05:55:48.286Z,14.70
2023-02-21T05:56:48.276Z,13.40
2023-02-21T05:57:48.262Z,15.30
2023-02-21T05:58:48.261Z,14.00
2023-02-21T05:59:48.235Z,15.20
2023-02-21T06:00:48.215Z,13.90
2023-02-21T06:01:48.208Z,16.50
2023-02-21T06:02:48.199Z,14.10
2023-02-21T06:03:48.321Z,14.90
2023-02-21T06:04:48.166Z,17.10
2023-02-21T06:05:48.181Z,16.60
2023-02-21T06:06:48.143Z,17.00
2023-02-21T06:07:48.129Z,13.90
2023-02-21T06:08:48.126Z,14.70
2023-02-21T06:09:48.099Z,16.20
2023-02-21T06:10:48.668Z,14.80
2023-02-21T06:11:48.078Z,15.00
2023-02-21T06:12:48.063Z,16.90
2023-02-21T06:13:48.056Z,15.10
2023-02-21T06:14:48.027Z,15.80
2023-02-21T06:15:48.053Z,15.40
2023-02-21T06:16:48.003Z,15.50
2023-02-21T06:17:47.986Z,15.30
2023-02-21T06:18:47.988Z,16.40
2023-02-21T06:19:47.970Z,13.70
2023-02-21T06:20:47.953Z,17.00
2023-02-21T06:21:47.959Z,17.80
2023-02-21T06:22:47.934Z,15.90
2023-02-21T06:23:47.932Z,15.30
2023-02-21T06:24:47.891Z,15.40
2023-02-21T06:25:47.897Z,13.90
2023-02-21T06:26:47.872Z,15.50
2023-02-21T06:27:47.865Z,14.30
2023-02-21T06:28:47.851Z,14.30
2023-02-21T06:29:47.828Z,16.80
2023-02-21T06:30:47.873Z,14.10
2023-02-21T06:31:47.880Z,14.20
2023-02-21T06:32:47.796Z,14.10
2023-02-21T06:33:47.796Z,12.90
2023-02-21T06:34:47.769Z,13.60
2023-02-21T06:35:47.761Z,14.80
2023-02-21T06:36:47.743Z,13.70
2023-02-21T06:37:47.741Z,13.60
2023-02-21T06:38:47.735Z,16.50
2023-02-21T06:39:47.698Z,12.60
2023-02-21T06:40:47.689Z,13.20
2023-02-21T06:41:47.673Z,13.50
2023-02-21T06:42:47.657Z,16.10
2023-02-21T06:43:47.660Z,11.80
2023-02-21T06:44:47.634Z,13.10
2023-02-21T06:45:47.627Z,13.40
2023-02-21T06:46:48.038Z,10.30
2023-02-21T06:47:47.590Z,12.10
2023-02-21T06:48:47.606Z,13.90
2023-02-21T06:49:47.580Z,11.50
2023-02-21T06:50:47.569Z,14.00
2023-02-21T06:51:47.548Z,14.30
2023-02-21T06:52:47.526Z,15.20
2023-02-21T06:53:47.567Z,13.80
2023-02-21T06:54:47.498Z,11.60
2023-02-21T06:55:47.486Z,13.70
2023-02-21T06:56:47.478Z,13.40
2023-02-21T06:57:47.463Z,14.20
2023-02-21T06:58:47.492Z,12.60
2023-02-21T06:59:47.438Z,12.00
2023-02-21T07:00:47.422Z,12.30
2023-02-21T07:01:47.510Z,12.90
2023-02-21T07:02:47.401Z,11.50
2023-02-21T07:03:47.418Z,12.20
2023-02-21T07:04:47.499Z,11.80
2023-02-21T07:05:47.357Z,13.90
2023-02-21T07:06:47.342Z,15.40
2023-02-21T07:07:47.353Z,14.30
2023-02-21T07:08:47.315Z,11.50
2023-02-21T07:09:47.339Z,11.40
2023-02-21T07:10:47.290Z,13.30
2023-02-21T07:11:47.282Z,15.60
2023-02-21T07:12:47.257Z,14.20
2023-02-21T07:13:47.250Z,15.20
2023-02-21T07:14:47.254Z,15.40
2023-02-21T07:15:47.249Z,13.10
2023-02-21T07:16:47.217Z,15.50
2023-02-21T07:17:47.201Z,14.50
2023-02-21T07:18:47.183Z,12.90
2023-02-21T07:19:47.187Z,15.40
2023-02-21T07:20:47.153Z,13.80
2023-02-21T07:21:47.148Z,16.30
2023-02-21T07:22:47.139Z,14.10
2023-02-21T07:23:47.115Z,16.40
2023-02-21T07:24:47.118Z,15.60
2023-02-21T07:25:47.113Z,14.10
2023-02-21T07:26:47.070Z,15.40
2023-02-21T07:27:47.065Z,16.90
2023-02-21T07:28:47.094Z,14.30
2023-02-21T07:29:47.046Z,15.10
2023-02-21T07:30:47.264Z,13.60
2023-02-21T07:31:47.157Z,14.10
2023-02-21T07:32:46.995Z,16.70
2023-02-21T07:33:46.990Z,14.20
2023-02-21T07:34:46.983Z,16.50
2023-02-21T07:35:46.957Z,16.30
2023-02-21T07:36:46.942Z,15.30
2023-02-21T07:37:46.962Z,16.90
2023-02-21T07:38:46.921Z,15.70
2023-02-21T07:39:46.923Z,14.00
2023-02-21T07:40:46.893Z,16.30
2023-02-21T07:41:46.928Z,17.50
2023-02-21T07:42:46.864Z,14.20
2023-02-21T07:43:46.851Z,15.20
2023-02-21T07:44:46.894Z,15.20
2023-02-21T07:45:46.861Z,16.20
2023-02-21T07:46:46.858Z,17.50
2023-02-21T07:47:48.110Z,16.10
2023-02-21T07:48:46.882Z,15.60
2023-02-21T07:49:46.802Z,16.00
2023-02-21T07:50:46.759Z,15.50
2023-02-21T07:51:46.754Z,17.20
2023-02-21T07:52:46.736Z,16.40
2023-02-21T07:53:46.723Z,15.00
2023-02-21T07:54:46.724Z,14.00
2023-02-21T07:55:46.694Z,15.60
2023-02-21T07:56:46.682Z,15.30
2023-02-21T07:57:46.696Z,16.50
2023-02-21T07:58:46.657Z,18.90
2023-02-21T07:59:46.657Z,19.30
2023-02-21T08:00:46.630Z,14.40
2023-02-21T08:01:46.675Z,17.40
2023-02-21T08:02:46.604Z,18.50
2023-02-21T08:03:46.595Z,15.40
2023-02-21T08:04:46.636Z,18.70
2023-02-21T08:05:46.601Z,15.80
2023-02-21T08:06:46.551Z,16.20
2023-02-21T08:07:46.536Z,18.00
2023-02-21T08:08:46.535Z,16.10
2023-02-21T08:09:46.526Z,16.10
2023-02-21T08:10:46.498Z,15.60
2023-02-21T08:11:46.498Z,17.70
2023-02-21T08:12:46.475Z,15.90
2023-02-21T08:13:46.478Z,15.90
2023-02-21T08:14:46.455Z,16.50
2023-02-21T08:15:46.449Z,16.70
2023-02-21T08:16:46.423Z,15.90
2023-02-21T08:17:46.416Z,17.10
2023-02-21T08:18:46.408Z,16.20
2023-02-21T08:19:46.394Z,17.60
2023-02-21T08:20:46.361Z,16.00
2023-02-21T08:21:46.350Z,16.00
2023-02-21T08:22:46.346Z,15.50
2023-02-21T08:23:46.328Z,16.60
2023-02-21T08:24:46.354Z,15.90
2023-02-21T08:25:46.297Z,15.40
2023-02-21T08:26:46.282Z,14.30
2023-02-21T08:27:46.280Z,14.70
2023-02-21T08:28:46.257Z,14.40
2023-02-21T08:29:46.265Z,17.20
2023-02-21T08:30:46.314Z,15.30
2023-02-21T08:31:46.326Z,16.00
2023-02-21T08:32:46.200Z,13.20
2023-02-21T08:33:46.190Z,14.60
2023-02-21T08:34:46.183Z,16.00
2023-02-21T08:35:46.178Z,15.00
2023-02-21T08:36:46.146Z,14.50
2023-02-21T08:37:46.141Z,15.40
2023-02-21T08:38:46.124Z,15.60
2023-02-21T08:39:46.110Z,15.30
2023-02-21T08:40:46.165Z,14.70
2023-02-21T08:41:46.087Z,13.40
2023-02-21T08:42:46.070Z,13.90
2023-02-21T08:43:46.065Z,13.70
2023-02-21T08:44:46.040Z,16.20
2023-02-21T08:45:46.073Z,15.30
2023-02-21T08:46:48.312Z,14.40
2023-02-21T08:47:46.031Z,16.20
2023-02-21T08:48:45.992Z,16.10
2023-02-21T08:49:45.983Z,15.50
2023-02-21T08:50:45.980Z,14.20
2023-02-21T08:51:45.951Z,14.90
2023-02-21T08:52:45.939Z,15.50
2023-02-21T08:53:45.925Z,13.40
2023-02-21T08:54:45.931Z,15.40
2023-02-21T08:55:45.913Z,13.90
2023-02-21T08:56:45.886Z,13.50
2023-02-21T08:57:45.874Z,14.60
2023-02-21T08:58:45.861Z,16.50
2023-02-21T08:59:45.847Z,15.00
2023-02-21T09:00:45.891Z,16.90
2023-02-21T09:01:45.876Z,16.10
2023-02-21T09:02:45.817Z,15.90
2023-02-21T09:03:45.796Z,16.00
2023-02-21T09:04:45.790Z,16.60
2023-02-21T09:05:45.791Z,16.60
2023-02-21T09:06:45.757Z,14.00
2023-02-21T09:07:45.743Z,16.40
2023-02-21T09:08:45.742Z,15.80
2023-02-21T09:09:45.716Z,15.40
2023-02-21T09:10:45.744Z,15.50
2023-02-21T09:11:45.693Z,19.10
2023-02-21T09:12:45.680Z,15.30
2023-02-21T09:13:45.668Z,14.90
2023-02-21T09:14:45.658Z,14.50
2023-02-21T09:15:45.652Z,14.60
2023-02-21T09:16:47.758Z,15.10
2023-02-21T09:17:45.639Z,14.50
2023-02-21T09:18:45.611Z,14.60
2023-02-21T09:19:45.591Z,16.20
2023-02-21T09:20:45.598Z,15.60
2023-02-21T09:21:45.567Z,15.30
2023-02-21T09:22:45.575Z,14.40
2023-02-21T09:23:45.542Z,19.00
2023-02-21T09:24:45.533Z,16.20
2023-02-21T09:25:45.514Z,15.50
2023-02-21T09:26:45.535Z,15.30
2023-02-21T09:27:45.484Z,14.70
2023-02-21T09:28:45.478Z,15.60
2023-02-21T09:29:46.925Z,14.80
2023-02-21T09:30:45.493Z,14.10
2023-02-21T09:31:45.514Z,15.60
2023-02-21T09:32:45.530Z,17.30
2023-02-21T09:33:45.431Z,15.20
2023-02-21T09:34:45.398Z,18.30
2023-02-21T09:35:45.390Z,15.30
2023-02-21T09:36:45.388Z,19.10
2023-02-21T09:37:45.356Z,15.80
2023-02-21T09:38:45.347Z,15.60
2023-02-21T09:39:45.332Z,15.10
2023-02-21T09:40:45.327Z,16.80
2023-02-21T09:41:45.317Z,17.20
2023-02-21T09:42:45.292Z,14.30
2023-02-21T09:43:45.284Z,16.20
2023-02-21T09:44:45.270Z,16.10
2023-02-21T09:45:45.301Z,14.50
2023-02-21T09:46:45.256Z,15.90
2023-02-21T09:47:45.231Z,16.10
2023-02-21T09:48:45.228Z,16.20
2023-02-21T09:49:45.239Z,15.60
2023-02-21T09:50:45.200Z,15.30
2023-02-21T09:51:45.197Z,15.90
2023-02-21T09:52:45.167Z,15.20
2023-02-21T09:53:45.149Z,13.90
2023-02-21T09:54:45.138Z,14.40
2023-02-21T09:55:45.124Z,16.70
2023-02-21T09:56:45.123Z,17.00
2023-02-21T09:57:45.100Z,16.70
2023-02-21T09:58:45.089Z,15.70
2023-02-21T09:59:45.077Z,15.30
2023-02-21T10:00:46.858Z,14.40
2023-02-21T10:01:45.068Z,14.10
2023-02-21T10:02:45.035Z,14.90
2023-02-21T10:03:45.018Z,14.50
2023-02-21T10:04:45.078Z,14.90
2023-02-21T10:05:45.014Z,15.90
2023-02-21T10:06:45.003Z,16.20
2023-02-21T10:07:44.965Z,17.40
2023-02-21T10:08:44.954Z,14.10
2023-02-21T10:09:44.938Z,17.10
2023-02-21T10:10:44.929Z,14.60
2023-02-21T10:11:44.940Z,15.40
2023-02-21T10:12:44.907Z,14.40
2023-02-21T10:13:44.884Z,15.70
2023-02-21T10:14:44.866Z,16.50
2023-02-21T10:15:44.847Z,16.10
2023-02-21T10:16:44.882Z,14.50
2023-02-21T10:17:44.823Z,14.30
2023-02-21T10:18:44.825Z,15.10
2023-02-21T10:19:44.801Z,15.70
2023-02-21T10:20:44.781Z,16.00
2023-02-21T10:21:44.810Z,14.40
2023-02-21T10:22:44.761Z,16.70
2023-02-21T10:23:44.748Z,18.30
2023-02-21T10:24:44.730Z,14.00
2023-02-21T10:25:44.721Z,16.60
2023-02-21T10:26:44.725Z,13.60
2023-02-21T10:27:44.690Z,15.50
2023-02-21T10:28:44.688Z,13.40
2023-02-21T10:29:44.661Z,16.20
2023-02-21T10:30:44.817Z,15.60
2023-02-21T10:31:44.779Z,14.60
2023-02-21T10:32:44.629Z,17.20
2023-02-21T10:33:44.615Z,15.70
2023-02-21T10:34:47.221Z,16.10
2023-02-21T10:35:44.599Z,16.40
2023-02-21T10:36:44.597Z,14.50
2023-02-21T10:37:44.584Z,13.40
2023-02-21T10:38:44.552Z,15.10
2023-02-21T10:39:44.526Z,18.10
2023-02-21T10:40:44.691Z,17.60
2023-02-21T10:41:44.504Z,16.40
2023-02-21T10:42:44.508Z,14.50
2023-02-21T10:43:44.481Z,16.70
2023-02-21T10:44:44.461Z,13.80
2023-02-21T10:45:46.745Z,16.10
2023-02-21T10:46:44.436Z,14.40
2023-02-21T10:47:44.436Z,15.80
2023-02-21T10:48:44.408Z,16.80
2023-02-21T10:49:44.399Z,17.00
2023-02-21T10:50:44.388Z,17.50
2023-02-21T10:51:44.367Z,14.80
2023-02-21T10:52:44.439Z,15.00
2023-02-21T10:53:44.372Z,14.90
2023-02-21T10:54:44.332Z,17.20
2023-02-21T10:55:44.320Z,16.40
2023-02-21T10:56:44.302Z,14.10
2023-02-21T10:57:44.302Z,13.60
2023-02-21T10:58:44.279Z,16.10
2023-02-21T10:59:44.264Z,15.60
2023-02-21T11:00:44.250Z,15.00
2023-02-21T11:01:44.340Z,16.40
2023-02-21T11:02:44.281Z,14.10
2023-02-21T11:03:44.206Z,15.20
2023-02-21T11:04:44.196Z,16.40
2023-02-21T11:05:44.192Z,13.90
2023-02-21T11:06:44.206Z,13.90
2023-02-21T11:07:44.167Z,15.10
2023-02-21T11:08:44.173Z,14.70
2023-02-21T11:09:44.149Z,12.80
2023-02-21T11:10:44.156Z,12.50
2023-02-21T11:11:44.102Z,15.50
2023-02-21T11:12:44.107Z,13.50
2023-02-21T11:13:44.081Z,13.60
2023-02-21T11:14:44.062Z,14.90
2023-02-21T11:15:44.114Z,16.80
2023-02-21T11:16:44.038Z,15.10
2023-02-21T11:17:44.041Z,13.30
2023-02-21T11:18:44.020Z,15.90
2023-02-21T11:19:44.003Z,13.10
2023-02-21T11:20:44.002Z,14.70
2023-02-21T11:21:43.975Z,14.40
2023-02-21T11:22:43.982Z,14.80
2023-02-21T11:23:43.950Z,14.50
2023-02-21T11:24:43.936Z,12.80
2023-02-21T11:25:43.945Z,13.00
2023-02-21T11:26:43.908Z,13.40
2023-02-21T11:27:46.138Z,13.70
2023-02-21T11:28:43.884Z,14.00
2023-02-21T11:29:43.864Z,13.80
2023-02-21T11:30:44.062Z,12.70
2023-02-21T11:31:44.015Z,12.40
2023-02-21T11:32:43.846Z,13.50
2023-02-21T11:33:43.813Z,13.70
2023-02-21T11:34:43.803Z,11.80
2023-02-21T11:35:43.802Z,13.70
2023-02-21T11:36:43.784Z,13.80
2023-02-21T11:37:43.778Z,12.20
2023-02-21T11:38:43.747Z,14.00
2023-02-21T11:39:43.736Z,11.30
2023-02-21T11:40:43.728Z,11.30
2023-02-21T11:41:43.727Z,12.90
2023-02-21T11:42:43.723Z,14.20
2023-02-21T11:43:43.685Z,11.60
2023-02-21T11:44:43.674Z,12.20
2023-02-21T11:45:43.690Z,12.90
2023-02-21T11:46:43.643Z,11.30
2023-02-21T11:47:43.639Z,16.50
2023-02-21T11:48:43.640Z,14.50
2023-02-21T11:49:43.609Z,12.50
2023-02-21T11:50:43.599Z,12.20
2023-02-21T11:51:43.580Z,12.20
2023-02-21T11:52:43.568Z,13.90
2023-02-21T11:53:43.595Z,12.00
2023-02-21T11:54:43.538Z,14.00
2023-02-21T11:55:43.527Z,13.10
2023-02-21T11:56:43.512Z,11.30
2023-02-21T11:57:43.522Z,11.10
2023-02-21T11:58:43.502Z,12.50
2023-02-21T11:59:43.461Z,11.70
2023-02-21T12:00:43.451Z,11.80
2023-02-21T12:01:43.442Z,12.90
2023-02-21T12:02:43.478Z,12.60
2023-02-21T12:03:43.434Z,11.90
2023-02-21T12:04:43.400Z,11.90
2023-02-21T12:05:43.423Z,14.80
2023-02-21T12:06:43.378Z,12.00
2023-02-21T12:07:43.369Z,11.20
2023-02-21T12:08:43.365Z,10.20
2023-02-21T12:09:43.332Z,10.90
2023-02-21T12:10:43.320Z,9.70
2023-02-21T12:11:43.309Z,12.70
2023-02-21T12:12:43.296Z,11.30
2023-02-21T12:13:43.318Z,11.20
2023-02-21T12:14:43.268Z,12.10
2023-02-21T12:15:43.315Z,11.10
2023-02-21T12:16:43.234Z,11.20
2023-02-21T12:17:43.234Z,13.00
2023-02-21T12:18:43.247Z,13.60
2023-02-21T12:19:43.201Z,10.10
2023-02-21T12:20:43.215Z,10.90
2023-02-21T12:21:43.208Z,10.00
2023-02-21T12:22:43.161Z,10.00
2023-02-21T12:23:43.162Z,11.70
2023-02-21T12:24:43.131Z,12.60
2023-02-21T12:25:43.129Z,9.90
2023-02-21T12:26:43.122Z,10.40
2023-02-21T12:27:43.095Z,12.00
2023-02-21T12:28:43.095Z,10.70
2023-02-21T12:29:43.099Z,11.30
2023-02-21T12:30:43.201Z,10.60
2023-02-21T12:31:43.148Z,10.50
2023-02-21T12:32:43.030Z,11.00
2023-02-21T12:33:43.043Z,10.50
2023-02-21T12:34:43.008Z,11.80
2023-02-21T12:35:43.019Z,11.50
2023-02-21T12:36:42.977Z,10.30
2023-02-21T12:37:42.962Z,8.80
2023-02-21T12:38:42.976Z,10.70
2023-02-21T12:39:42.937Z,9.70
2023-02-21T12:40:42.933Z,13.90
2023-02-21T12:41:42.916Z,8.80
2023-02-21T12:42:42.900Z,11.30
2023-02-21T12:43:42.900Z,9.00
2023-02-21T12:44:42.885Z,8.90
2023-02-21T12:45:42.885Z,10.00
2023-02-21T12:46:42.891Z,9.40
2023-02-21T12:47:42.850Z,8.50
2023-02-21T12:48:42.841Z,9.80
2023-02-21T12:49:42.810Z,8.20
2023-02-21T12:50:42.835Z,8.30
2023-02-21T12:51:42.792Z,9.00
2023-02-21T12:52:42.782Z,7.60
2023-02-21T12:53:42.779Z,10.90
2023-02-21T12:54:42.798Z,8.30